Airfield :
LOGIN :

Register | Disclaimer

   EN    FR    IT 

 










Legend :    VFR   Marginal VFR   IFR   Intensive IFR   Very Intensive IFR
Visi :
Ceiling :
>= 8 km
>= 3000ft
5 to 8 km
1000 to 3000 ft
1500m to 5 km
500 to 1000 ft
800 to 1500m
200 to 500 ft
< 800m
< 200 ft
Symbols :   Thunderstorms  Fog  Heavy snow  Heavy precipitations  Wind > 20 kt
SIGMETs :     Misc.  Thunderstorms  Icing  Turbulence  Mountain Waves  Volcanic Ashes






- Airport Elevation : 1247 ft
- IATA code : PRG


LKPR - Praha Ruzyne

CURRENT METAR :
  • 051930Z 15002KT CAVOK M03/M08 Q1036 NOSIG

EXPIRED METARs :
  • 051900Z 11003KT CAVOK M04/M08 Q1035 NOSIG
  • 051830Z 09003KT CAVOK M04/M07 Q1036 NOSIG
  • 051800Z 07005KT CAVOK M04/M07 Q1036 NOSIG
  • 051730Z 07005KT CAVOK M04/M07 Q1036 NOSIG
  • 051700Z 06004KT CAVOK M03/M07 Q1035 NOSIG

TAF TAF LKPR
Valid from the 05 at 18:00 until the 07 at 00:00 UTC


051700Z 0518/0700 09004KT CAVOK
BECMG 0601/0603 23004KT
BECMG 0607/0609 VRB02KT
BECMG 0612/0614 06006KT



MET'MAP, your aeronautical weather chart ! - Copyright ORBIFLY December 2007 - Disclaimer

ORBIFLY MET'MAP TEAM :

Programming & Development : Alexandra Zaïnal
Original concept : Baudouin d'Aumeries
Technical & hardware support : Manuel Goepfert
Assistance : Marc-Olivier Méhu




SOURCES & CREDITS :

   NOAA